sensor_id;sensor_type;location;lat;lon;timestamp;temperature;humidity
17364;DHT22;8799;43.594;13.526;2022-07-18T00:00:16;29.20;81.00
17364;DHT22;8799;43.594;13.526;2022-07-18T00:02:44;29.20;81.10
17364;DHT22;8799;43.594;13.526;2022-07-18T00:05:12;29.20;81.10
17364;DHT22;8799;43.594;13.526;2022-07-18T00:07:41;29.20;81.20
17364;DHT22;8799;43.594;13.526;2022-07-18T00:10:09;29.20;81.20
17364;DHT22;8799;43.594;13.526;2022-07-18T00:12:37;29.20;81.20
17364;DHT22;8799;43.594;13.526;2022-07-18T00:15:06;29.20;81.30
17364;DHT22;8799;43.594;13.526;2022-07-18T00:17:33;29.20;81.40
17364;DHT22;8799;43.594;13.526;2022-07-18T00:20:01;29.20;81.50
17364;DHT22;8799;43.594;13.526;2022-07-18T00:22:29;29.20;81.50
17364;DHT22;8799;43.594;13.526;2022-07-18T00:24:58;29.20;81.50
17364;DHT22;8799;43.594;13.526;2022-07-18T00:27:26;29.20;81.50
17364;DHT22;8799;43.594;13.526;2022-07-18T00:29:54;29.20;81.40
17364;DHT22;8799;43.594;13.526;2022-07-18T00:32:21;29.20;81.40
17364;DHT22;8799;43.594;13.526;2022-07-18T00:34:49;29.20;81.20
17364;DHT22;8799;43.594;13.526;2022-07-18T00:37:17;29.20;81.10
17364;DHT22;8799;43.594;13.526;2022-07-18T00:39:45;29.20;81.00
17364;DHT22;8799;43.594;13.526;2022-07-18T00:42:14;29.20;81.00
17364;DHT22;8799;43.594;13.526;2022-07-18T00:44:42;29.20;80.90
17364;DHT22;8799;43.594;13.526;2022-07-18T00:47:10;29.20;80.90
17364;DHT22;8799;43.594;13.526;2022-07-18T00:49:37;29.20;80.80
17364;DHT22;8799;43.594;13.526;2022-07-18T00:52:05;29.20;80.80
17364;DHT22;8799;43.594;13.526;2022-07-18T00:54:33;29.20;80.80
17364;DHT22;8799;43.594;13.526;2022-07-18T00:57:01;29.20;80.80
17364;DHT22;8799;43.594;13.526;2022-07-18T00:59:30;29.20;80.80
17364;DHT22;8799;43.594;13.526;2022-07-18T01:02:15;29.20;80.70
17364;DHT22;8799;43.594;13.526;2022-07-18T01:04:42;29.20;80.70
17364;DHT22;8799;43.594;13.526;2022-07-18T01:07:10;29.20;80.60
17364;DHT22;8799;43.594;13.526;2022-07-18T01:09:38;29.20;80.60
17364;DHT22;8799;43.594;13.526;2022-07-18T01:12:07;29.20;80.50
17364;DHT22;8799;43.594;13.526;2022-07-18T01:14:37;29.20;80.60
17364;DHT22;8799;43.594;13.526;2022-07-18T01:17:12;29.20;80.50
17364;DHT22;8799;43.594;13.526;2022-07-18T01:19:41;29.20;80.70
17364;DHT22;8799;43.594;13.526;2022-07-18T01:22:11;29.20;80.50
17364;DHT22;8799;43.594;13.526;2022-07-18T01:24:39;29.10;80.50
17364;DHT22;8799;43.594;13.526;2022-07-18T01:27:07;29.10;80.40
17364;DHT22;8799;43.594;13.526;2022-07-18T01:29:36;29.10;80.30
17364;DHT22;8799;43.594;13.526;2022-07-18T01:32:04;29.10;80.30
17364;DHT22;8799;43.594;13.526;2022-07-18T01:34:32;29.10;80.10
17364;DHT22;8799;43.594;13.526;2022-07-18T01:37:00;29.10;80.20
17364;DHT22;8799;43.594;13.526;2022-07-18T01:39:29;29.10;80.10
17364;DHT22;8799;43.594;13.526;2022-07-18T01:41:57;29.10;79.80
17364;DHT22;8799;43.594;13.526;2022-07-18T01:44:25;29.10;79.70
17364;DHT22;8799;43.594;13.526;2022-07-18T01:46:54;29.10;79.70
17364;DHT22;8799;43.594;13.526;2022-07-18T01:49:23;29.10;79.40
17364;DHT22;8799;43.594;13.526;2022-07-18T01:51:53;29.10;79.20
17364;DHT22;8799;43.594;13.526;2022-07-18T01:54:21;29.10;79.20
17364;DHT22;8799;43.594;13.526;2022-07-18T01:56:51;29.10;79.10
17364;DHT22;8799;43.594;13.526;2022-07-18T01:59:19;29.10;79.00
17364;DHT22;8799;43.594;13.526;2022-07-18T02:01:47;29.10;79.00
17364;DHT22;8799;43.594;13.526;2022-07-18T02:04:15;29.10;78.80
17364;DHT22;8799;43.594;13.526;2022-07-18T02:06:43;29.10;78.80
17364;DHT22;8799;43.594;13.526;2022-07-18T02:09:11;29.10;78.70
17364;DHT22;8799;43.594;13.526;2022-07-18T02:11:39;29.10;78.60
17364;DHT22;8799;43.594;13.526;2022-07-18T02:14:09;29.10;78.40
17364;DHT22;8799;43.594;13.526;2022-07-18T02:16:36;29.10;78.40
17364;DHT22;8799;43.594;13.526;2022-07-18T02:19:04;29.10;78.20
17364;DHT22;8799;43.594;13.526;2022-07-18T02:21:32;29.00;78.10
17364;DHT22;8799;43.594;13.526;2022-07-18T02:23:59;29.00;78.00
17364;DHT22;8799;43.594;13.526;2022-07-18T02:26:27;29.00;78.00
17364;DHT22;8799;43.594;13.526;2022-07-18T02:28:55;29.00;78.00
17364;DHT22;8799;43.594;13.526;2022-07-18T02:31:24;29.00;77.90
17364;DHT22;8799;43.594;13.526;2022-07-18T02:33:51;29.00;77.70
17364;DHT22;8799;43.594;13.526;2022-07-18T02:36:19;29.00;77.70
17364;DHT22;8799;43.594;13.526;2022-07-18T02:38:47;29.00;77.50
17364;DHT22;8799;43.594;13.526;2022-07-18T02:41:14;29.00;77.50
17364;DHT22;8799;43.594;13.526;2022-07-18T02:43:42;29.00;77.40
17364;DHT22;8799;43.594;13.526;2022-07-18T02:46:10;29.00;77.10
17364;DHT22;8799;43.594;13.526;2022-07-18T02:48:39;29.00;77.00
17364;DHT22;8799;43.594;13.526;2022-07-18T02:51:07;29.00;76.80
17364;DHT22;8799;43.594;13.526;2022-07-18T02:53:34;29.00;76.70
17364;DHT22;8799;43.594;13.526;2022-07-18T02:56:02;29.00;76.30
17364;DHT22;8799;43.594;13.526;2022-07-18T02:58:31;29.00;76.40
17364;DHT22;8799;43.594;13.526;2022-07-18T03:00:59;28.90;75.70
17364;DHT22;8799;43.594;13.526;2022-07-18T03:03:27;28.90;75.70
17364;DHT22;8799;43.594;13.526;2022-07-18T03:05:55;28.90;75.70
17364;DHT22;8799;43.594;13.526;2022-07-18T03:08:23;28.90;75.90
17364;DHT22;8799;43.594;13.526;2022-07-18T03:10:50;28.90;76.00
17364;DHT22;8799;43.594;13.526;2022-07-18T03:13:18;28.90;75.90
17364;DHT22;8799;43.594;13.526;2022-07-18T03:15:46;28.90;75.80
17364;DHT22;8799;43.594;13.526;2022-07-18T03:18:15;28.90;75.80
17364;DHT22;8799;43.594;13.526;2022-07-18T03:20:42;28.90;75.90
17364;DHT22;8799;43.594;13.526;2022-07-18T03:23:12;28.80;76.00
17364;DHT22;8799;43.594;13.526;2022-07-18T03:25:39;28.80;76.00
17364;DHT22;8799;43.594;13.526;2022-07-18T03:28:07;28.70;76.20
17364;DHT22;8799;43.594;13.526;2022-07-18T03:30:34;28.80;76.30
17364;DHT22;8799;43.594;13.526;2022-07-18T03:33:02;28.80;76.40
17364;DHT22;8799;43.594;13.526;2022-07-18T03:35:30;28.80;76.40
17364;DHT22;8799;43.594;13.526;2022-07-18T03:37:57;28.80;76.50
17364;DHT22;8799;43.594;13.526;2022-07-18T03:40:27;28.90;76.90
17364;DHT22;8799;43.594;13.526;2022-07-18T03:42:55;28.90;77.10
17364;DHT22;8799;43.594;13.526;2022-07-18T03:45:23;28.90;77.00
17364;DHT22;8799;43.594;13.526;2022-07-18T03:47:51;28.90;76.90
17364;DHT22;8799;43.594;13.526;2022-07-18T03:50:19;28.90;76.70
17364;DHT22;8799;43.594;13.526;2022-07-18T03:52:46;28.90;76.50
17364;DHT22;8799;43.594;13.526;2022-07-18T03:55:15;28.90;76.30
17364;DHT22;8799;43.594;13.526;2022-07-18T03:57:45;29.00;76.90
17364;DHT22;8799;43.594;13.526;2022-07-18T04:00:13;28.90;76.20
17364;DHT22;8799;43.594;13.526;2022-07-18T04:02:42;29.00;76.70
17364;DHT22;8799;43.594;13.526;2022-07-18T04:05:11;29.00;76.60
17364;DHT22;8799;43.594;13.526;2022-07-18T04:07:39;29.00;76.50
17364;DHT22;8799;43.594;13.526;2022-07-18T04:10:08;29.00;76.30
17364;DHT22;8799;43.594;13.526;2022-07-18T04:12:45;29.00;76.30
17364;DHT22;8799;43.594;13.526;2022-07-18T04:15:14;29.00;76.20
17364;DHT22;8799;43.594;13.526;2022-07-18T04:17:41;29.00;76.00
17364;DHT22;8799;43.594;13.526;2022-07-18T04:20:11;29.00;76.00
17364;DHT22;8799;43.594;13.526;2022-07-18T04:22:47;29.00;75.90
17364;DHT22;8799;43.594;13.526;2022-07-18T04:25:16;29.00;75.80
17364;DHT22;8799;43.594;13.526;2022-07-18T04:27:46;29.00;75.70
17364;DHT22;8799;43.594;13.526;2022-07-18T04:30:14;29.00;75.80
17364;DHT22;8799;43.594;13.526;2022-07-18T04:32:42;29.00;75.90
17364;DHT22;8799;43.594;13.526;2022-07-18T04:35:10;29.00;76.00
17364;DHT22;8799;43.594;13.526;2022-07-18T04:37:38;29.00;76.00
17364;DHT22;8799;43.594;13.526;2022-07-18T04:40:09;29.00;76.00
17364;DHT22;8799;43.594;13.526;2022-07-18T04:42:37;29.00;76.10
17364;DHT22;8799;43.594;13.526;2022-07-18T04:45:08;29.00;76.10
17364;DHT22;8799;43.594;13.526;2022-07-18T04:47:36;29.00;76.10
17364;DHT22;8799;43.594;13.526;2022-07-18T04:50:04;29.00;76.20
17364;DHT22;8799;43.594;13.526;2022-07-18T04:52:37;29.00;76.20
17364;DHT22;8799;43.594;13.526;2022-07-18T04:55:06;29.00;76.10
17364;DHT22;8799;43.594;13.526;2022-07-18T04:57:34;29.00;75.90
17364;DHT22;8799;43.594;13.526;2022-07-18T05:00:05;28.90;75.30
17364;DHT22;8799;43.594;13.526;2022-07-18T05:02:35;28.90;75.30
17364;DHT22;8799;43.594;13.526;2022-07-18T05:05:05;28.90;75.50
17364;DHT22;8799;43.594;13.526;2022-07-18T05:07:33;28.90;75.50
17364;DHT22;8799;43.594;13.526;2022-07-18T05:10:01;28.90;75.40
17364;DHT22;8799;43.594;13.526;2022-07-18T05:12:34;28.90;75.30
17364;DHT22;8799;43.594;13.526;2022-07-18T05:15:01;28.90;75.20
17364;DHT22;8799;43.594;13.526;2022-07-18T05:17:29;28.90;75.10
17364;DHT22;8799;43.594;13.526;2022-07-18T05:19:59;28.80;75.00
17364;DHT22;8799;43.594;13.526;2022-07-18T05:22:26;28.80;75.10
17364;DHT22;8799;43.594;13.526;2022-07-18T05:24:54;28.90;75.10
17364;DHT22;8799;43.594;13.526;2022-07-18T05:27:21;28.90;75.80
17364;DHT22;8799;43.594;13.526;2022-07-18T05:29:49;28.90;75.80
17364;DHT22;8799;43.594;13.526;2022-07-18T05:32:17;28.90;75.90
17364;DHT22;8799;43.594;13.526;2022-07-18T05:34:44;28.90;75.40
17364;DHT22;8799;43.594;13.526;2022-07-18T05:37:14;28.90;75.50
17364;DHT22;8799;43.594;13.526;2022-07-18T05:39:42;28.80;75.40
17364;DHT22;8799;43.594;13.526;2022-07-18T05:42:10;28.90;75.70
17364;DHT22;8799;43.594;13.526;2022-07-18T05:44:37;28.80;75.30
17364;DHT22;8799;43.594;13.526;2022-07-18T05:47:05;28.80;75.20
17364;DHT22;8799;43.594;13.526;2022-07-18T05:49:33;28.80;75.20
17364;DHT22;8799;43.594;13.526;2022-07-18T05:52:01;28.80;75.10
17364;DHT22;8799;43.594;13.526;2022-07-18T05:54:30;28.80;75.10
17364;DHT22;8799;43.594;13.526;2022-07-18T05:56:58;28.80;75.10
17364;DHT22;8799;43.594;13.526;2022-07-18T05:59:26;28.80;75.10
17364;DHT22;8799;43.594;13.526;2022-07-18T06:01:54;28.80;75.20
17364;DHT22;8799;43.594;13.526;2022-07-18T06:04:22;28.80;75.20
17364;DHT22;8799;43.594;13.526;2022-07-18T06:06:50;28.80;75.20
17364;DHT22;8799;43.594;13.526;2022-07-18T06:09:19;28.80;75.30
17364;DHT22;8799;43.594;13.526;2022-07-18T06:11:48;28.80;75.30
17364;DHT22;8799;43.594;13.526;2022-07-18T06:14:16;28.80;75.40
17364;DHT22;8799;43.594;13.526;2022-07-18T06:16:43;28.80;75.50
17364;DHT22;8799;43.594;13.526;2022-07-18T06:19:11;28.80;75.50
17364;DHT22;8799;43.594;13.526;2022-07-18T06:21:38;28.80;75.60
17364;DHT22;8799;43.594;13.526;2022-07-18T06:24:06;28.80;75.70
17364;DHT22;8799;43.594;13.526;2022-07-18T06:26:34;28.80;75.80
17364;DHT22;8799;43.594;13.526;2022-07-18T06:29:03;28.80;75.90
17364;DHT22;8799;43.594;13.526;2022-07-18T06:31:31;28.80;75.90
17364;DHT22;8799;43.594;13.526;2022-07-18T06:33:58;28.80;76.00
17364;DHT22;8799;43.594;13.526;2022-07-18T06:36:26;28.80;76.10
17364;DHT22;8799;43.594;13.526;2022-07-18T06:38:54;28.80;76.20
17364;DHT22;8799;43.594;13.526;2022-07-18T06:41:22;28.80;76.30
17364;DHT22;8799;43.594;13.526;2022-07-18T06:43:49;28.80;76.40
17364;DHT22;8799;43.594;13.526;2022-07-18T06:46:18;28.80;76.50
17364;DHT22;8799;43.594;13.526;2022-07-18T06:48:47;28.80;76.50
17364;DHT22;8799;43.594;13.526;2022-07-18T06:51:15;28.80;76.60
17364;DHT22;8799;43.594;13.526;2022-07-18T06:53:43;28.80;76.70
17364;DHT22;8799;43.594;13.526;2022-07-18T06:56:10;28.80;76.70
17364;DHT22;8799;43.594;13.526;2022-07-18T06:58:38;28.80;76.80
17364;DHT22;8799;43.594;13.526;2022-07-18T07:01:06;28.80;76.80
17364;DHT22;8799;43.594;13.526;2022-07-18T07:03:35;28.80;76.90
17364;DHT22;8799;43.594;13.526;2022-07-18T07:06:03;28.80;77.10
17364;DHT22;8799;43.594;13.526;2022-07-18T07:08:31;28.80;77.20
17364;DHT22;8799;43.594;13.526;2022-07-18T07:10:59;28.80;77.20
17364;DHT22;8799;43.594;13.526;2022-07-18T07:13:27;28.80;77.40
17364;DHT22;8799;43.594;13.526;2022-07-18T07:15:54;28.80;77.40
17364;DHT22;8799;43.594;13.526;2022-07-18T07:18:22;28.80;77.50
17364;DHT22;8799;43.594;13.526;2022-07-18T07:20:51;28.80;77.50
17364;DHT22;8799;43.594;13.526;2022-07-18T07:23:19;28.80;77.60
17364;DHT22;8799;43.594;13.526;2022-07-18T07:25:46;28.80;77.70
17364;DHT22;8799;43.594;13.526;2022-07-18T07:28:15;28.80;77.70
17364;DHT22;8799;43.594;13.526;2022-07-18T07:30:42;28.80;77.80
17364;DHT22;8799;43.594;13.526;2022-07-18T07:33:10;28.80;77.90
17364;DHT22;8799;43.594;13.526;2022-07-18T07:35:37;28.80;77.90
17364;DHT22;8799;43.594;13.526;2022-07-18T07:38:06;28.80;77.90
17364;DHT22;8799;43.594;13.526;2022-07-18T07:40:34;28.80;78.10
17364;DHT22;8799;43.594;13.526;2022-07-18T07:43:06;28.80;78.10
17364;DHT22;8799;43.594;13.526;2022-07-18T07:45:34;28.80;78.20
17364;DHT22;8799;43.594;13.526;2022-07-18T07:48:02;28.80;78.30
17364;DHT22;8799;43.594;13.526;2022-07-18T07:50:29;28.80;78.40
17364;DHT22;8799;43.594;13.526;2022-07-18T07:52:58;28.80;78.50
17364;DHT22;8799;43.594;13.526;2022-07-18T07:55:27;28.80;78.60
17364;DHT22;8799;43.594;13.526;2022-07-18T07:57:55;28.80;78.60
17364;DHT22;8799;43.594;13.526;2022-07-18T08:00:23;28.80;78.80
17364;DHT22;8799;43.594;13.526;2022-07-18T08:02:53;28.80;78.80
17364;DHT22;8799;43.594;13.526;2022-07-18T08:05:21;28.80;78.90
17364;DHT22;8799;43.594;13.526;2022-07-18T08:07:49;28.80;79.00
17364;DHT22;8799;43.594;13.526;2022-07-18T08:10:18;28.80;79.10
17364;DHT22;8799;43.594;13.526;2022-07-18T08:12:47;28.80;79.30
17364;DHT22;8799;43.594;13.526;2022-07-18T08:15:16;28.80;79.20
17364;DHT22;8799;43.594;13.526;2022-07-18T08:17:43;28.80;79.20
17364;DHT22;8799;43.594;13.526;2022-07-18T08:20:12;28.80;79.20
17364;DHT22;8799;43.594;13.526;2022-07-18T08:22:52;28.80;79.40
17364;DHT22;8799;43.594;13.526;2022-07-18T08:25:20;28.80;79.40
17364;DHT22;8799;43.594;13.526;2022-07-18T08:27:49;28.80;79.50
17364;DHT22;8799;43.594;13.526;2022-07-18T08:30:17;28.80;79.50
17364;DHT22;8799;43.594;13.526;2022-07-18T08:32:45;28.80;79.50
17364;DHT22;8799;43.594;13.526;2022-07-18T08:35:13;28.80;79.60
17364;DHT22;8799;43.594;13.526;2022-07-18T08:37:40;28.80;79.60
17364;DHT22;8799;43.594;13.526;2022-07-18T08:40:09;28.80;79.60
17364;DHT22;8799;43.594;13.526;2022-07-18T08:42:37;28.80;79.60
17364;DHT22;8799;43.594;13.526;2022-07-18T08:45:07;28.80;79.60
17364;DHT22;8799;43.594;13.526;2022-07-18T08:47:35;28.80;79.70
17364;DHT22;8799;43.594;13.526;2022-07-18T08:50:04;28.80;80.10
17364;DHT22;8799;43.594;13.526;2022-07-18T08:52:32;28.80;80.20
17364;DHT22;8799;43.594;13.526;2022-07-18T08:55:01;28.80;80.00
17364;DHT22;8799;43.594;13.526;2022-07-18T08:57:30;28.80;80.70
17364;DHT22;8799;43.594;13.526;2022-07-18T08:59:57;28.80;80.40
17364;DHT22;8799;43.594;13.526;2022-07-18T09:02:27;28.70;80.50
17364;DHT22;8799;43.594;13.526;2022-07-18T09:04:55;28.80;80.60
17364;DHT22;8799;43.594;13.526;2022-07-18T09:07:24;28.80;80.70
17364;DHT22;8799;43.594;13.526;2022-07-18T09:09:54;28.80;80.80
17364;DHT22;8799;43.594;13.526;2022-07-18T09:12:23;28.80;81.10
17364;DHT22;8799;43.594;13.526;2022-07-18T09:14:50;28.80;81.30
17364;DHT22;8799;43.594;13.526;2022-07-18T09:17:19;28.80;81.00
17364;DHT22;8799;43.594;13.526;2022-07-18T09:20:00;28.80;80.80
17364;DHT22;8799;43.594;13.526;2022-07-18T09:22:29;28.80;80.90
17364;DHT22;8799;43.594;13.526;2022-07-18T09:24:59;28.80;80.90
17364;DHT22;8799;43.594;13.526;2022-07-18T09:27:34;28.80;80.80
17364;DHT22;8799;43.594;13.526;2022-07-18T09:30:15;28.80;80.70
17364;DHT22;8799;43.594;13.526;2022-07-18T09:32:44;28.80;80.70
17364;DHT22;8799;43.594;13.526;2022-07-18T09:35:17;28.80;80.80
17364;DHT22;8799;43.594;13.526;2022-07-18T09:37:53;28.80;80.60
17364;DHT22;8799;43.594;13.526;2022-07-18T09:40:22;28.80;80.30
17364;DHT22;8799;43.594;13.526;2022-07-18T09:42:50;28.80;80.20
17364;DHT22;8799;43.594;13.526;2022-07-18T09:45:26;28.80;80.10
17364;DHT22;8799;43.594;13.526;2022-07-18T09:47:55;28.80;80.00
17364;DHT22;8799;43.594;13.526;2022-07-18T09:50:27;28.80;80.20
17364;DHT22;8799;43.594;13.526;2022-07-18T09:53:18;28.80;80.10
17364;DHT22;8799;43.594;13.526;2022-07-18T09:55:50;28.80;80.10
17364;DHT22;8799;43.594;13.526;2022-07-18T09:58:19;28.80;80.20
17364;DHT22;8799;43.594;13.526;2022-07-18T10:00:48;28.80;80.20
17364;DHT22;8799;43.594;13.526;2022-07-18T10:03:17;28.80;80.00
17364;DHT22;8799;43.594;13.526;2022-07-18T10:05:47;28.80;80.00
17364;DHT22;8799;43.594;13.526;2022-07-18T10:08:17;28.80;79.80
17364;DHT22;8799;43.594;13.526;2022-07-18T10:10:46;28.80;79.60
17364;DHT22;8799;43.594;13.526;2022-07-18T10:13:15;28.80;79.50
17364;DHT22;8799;43.594;13.526;2022-07-18T10:15:44;28.80;79.20
17364;DHT22;8799;43.594;13.526;2022-07-18T10:18:13;28.80;78.70
17364;DHT22;8799;43.594;13.526;2022-07-18T10:20:43;28.80;78.40
17364;DHT22;8799;43.594;13.526;2022-07-18T10:23:17;28.80;77.60
17364;DHT22;8799;43.594;13.526;2022-07-18T10:26:13;28.80;77.50
17364;DHT22;8799;43.594;13.526;2022-07-18T10:29:09;28.80;77.30
17364;DHT22;8799;43.594;13.526;2022-07-18T10:31:37;28.80;77.00
17364;DHT22;8799;43.594;13.526;2022-07-18T10:34:11;28.80;76.80
17364;DHT22;8799;43.594;13.526;2022-07-18T10:36:41;28.80;76.50
17364;DHT22;8799;43.594;13.526;2022-07-18T10:39:34;28.80;76.30
17364;DHT22;8799;43.594;13.526;2022-07-18T10:42:17;28.80;76.00
17364;DHT22;8799;43.594;13.526;2022-07-18T10:44:46;28.80;76.00
17364;DHT22;8799;43.594;13.526;2022-07-18T10:47:15;28.80;75.50
17364;DHT22;8799;43.594;13.526;2022-07-18T10:50:08;28.80;75.30
17364;DHT22;8799;43.594;13.526;2022-07-18T10:52:55;28.80;75.40
17364;DHT22;8799;43.594;13.526;2022-07-18T10:55:33;28.80;75.20
17364;DHT22;8799;43.594;13.526;2022-07-18T10:58:20;28.80;74.80
17364;DHT22;8799;43.594;13.526;2022-07-18T11:00:50;28.80;74.50
17364;DHT22;8799;43.594;13.526;2022-07-18T11:03:26;28.80;74.50
17364;DHT22;8799;43.594;13.526;2022-07-18T11:05:55;28.80;74.20
17364;DHT22;8799;43.594;13.526;2022-07-18T11:08:23;28.80;74.00
17364;DHT22;8799;43.594;13.526;2022-07-18T11:11:09;28.80;73.70
17364;DHT22;8799;43.594;13.526;2022-07-18T11:13:38;28.80;73.10
17364;DHT22;8799;43.594;13.526;2022-07-18T11:16:09;28.80;72.70
17364;DHT22;8799;43.594;13.526;2022-07-18T11:21:37;28.80;72.60
17364;DHT22;8799;43.594;13.526;2022-07-18T11:24:06;28.80;72.10
17364;DHT22;8799;43.594;13.526;2022-07-18T11:26:36;28.80;71.20
17364;DHT22;8799;43.594;13.526;2022-07-18T11:29:05;28.80;70.50
17364;DHT22;8799;43.594;13.526;2022-07-18T11:31:44;28.80;70.30
17364;DHT22;8799;43.594;13.526;2022-07-18T11:34:12;28.80;69.40
17364;DHT22;8799;43.594;13.526;2022-07-18T11:36:41;28.80;69.10
17364;DHT22;8799;43.594;13.526;2022-07-18T11:39:09;28.80;68.50
17364;DHT22;8799;43.594;13.526;2022-07-18T11:41:38;28.70;67.50
17364;DHT22;8799;43.594;13.526;2022-07-18T11:44:16;28.70;67.30
17364;DHT22;8799;43.594;13.526;2022-07-18T11:46:45;28.70;65.90
17364;DHT22;8799;43.594;13.526;2022-07-18T11:49:12;28.70;66.10
17364;DHT22;8799;43.594;13.526;2022-07-18T11:51:42;28.80;66.00
17364;DHT22;8799;43.594;13.526;2022-07-18T11:54:11;28.80;65.30
17364;DHT22;8799;43.594;13.526;2022-07-18T11:56:47;28.70;64.80
17364;DHT22;8799;43.594;13.526;2022-07-18T11:59:15;28.70;64.70
17364;DHT22;8799;43.594;13.526;2022-07-18T12:01:43;28.70;64.00
17364;DHT22;8799;43.594;13.526;2022-07-18T12:04:19;28.70;64.50
17364;DHT22;8799;43.594;13.526;2022-07-18T12:07:15;28.70;64.20
17364;DHT22;8799;43.594;13.526;2022-07-18T12:09:43;28.70;64.20
17364;DHT22;8799;43.594;13.526;2022-07-18T12:12:13;28.70;63.80
17364;DHT22;8799;43.594;13.526;2022-07-18T12:14:41;28.80;63.60
17364;DHT22;8799;43.594;13.526;2022-07-18T12:17:09;28.70;63.50
17364;DHT22;8799;43.594;13.526;2022-07-18T12:19:38;28.80;63.70
17364;DHT22;8799;43.594;13.526;2022-07-18T12:22:08;28.80;63.30
17364;DHT22;8799;43.594;13.526;2022-07-18T12:24:37;28.80;63.50
17364;DHT22;8799;43.594;13.526;2022-07-18T12:27:18;28.80;64.00
17364;DHT22;8799;43.594;13.526;2022-07-18T12:30:05;28.80;63.60
17364;DHT22;8799;43.594;13.526;2022-07-18T12:32:44;28.80;63.70
17364;DHT22;8799;43.594;13.526;2022-07-18T12:35:15;28.80;63.80
17364;DHT22;8799;43.594;13.526;2022-07-18T12:37:52;28.80;63.40
17364;DHT22;8799;43.594;13.526;2022-07-18T12:40:20;28.80;63.50
17364;DHT22;8799;43.594;13.526;2022-07-18T12:42:49;28.80;63.00
17364;DHT22;8799;43.594;13.526;2022-07-18T12:45:16;28.80;63.00
17364;DHT22;8799;43.594;13.526;2022-07-18T12:47:44;28.80;63.10
17364;DHT22;8799;43.594;13.526;2022-07-18T12:50:12;28.80;63.10
17364;DHT22;8799;43.594;13.526;2022-07-18T12:52:40;28.80;62.90
17364;DHT22;8799;43.594;13.526;2022-07-18T12:55:08;28.80;62.50
17364;DHT22;8799;43.594;13.526;2022-07-18T12:57:35;28.80;63.10
17364;DHT22;8799;43.594;13.526;2022-07-18T13:00:06;28.80;63.00
17364;DHT22;8799;43.594;13.526;2022-07-18T13:02:33;28.80;62.90
17364;DHT22;8799;43.594;13.526;2022-07-18T13:05:01;28.80;62.90
17364;DHT22;8799;43.594;13.526;2022-07-18T13:07:28;28.80;63.10
17364;DHT22;8799;43.594;13.526;2022-07-18T13:09:55;28.80;63.10
17364;DHT22;8799;43.594;13.526;2022-07-18T13:12:23;28.80;63.20
17364;DHT22;8799;43.594;13.526;2022-07-18T13:14:51;28.80;63.00
17364;DHT22;8799;43.594;13.526;2022-07-18T13:17:20;28.80;63.10
17364;DHT22;8799;43.594;13.526;2022-07-18T13:19:48;28.80;63.40
17364;DHT22;8799;43.594;13.526;2022-07-18T13:22:15;28.80;63.60
17364;DHT22;8799;43.594;13.526;2022-07-18T13:24:43;28.80;63.60
17364;DHT22;8799;43.594;13.526;2022-07-18T13:27:11;28.80;63.60
17364;DHT22;8799;43.594;13.526;2022-07-18T13:29:38;28.80;62.80
17364;DHT22;8799;43.594;13.526;2022-07-18T13:32:06;28.80;62.10
17364;DHT22;8799;43.594;13.526;2022-07-18T13:34:36;28.80;62.50
17364;DHT22;8799;43.594;13.526;2022-07-18T13:37:04;28.80;62.90
17364;DHT22;8799;43.594;13.526;2022-07-18T13:39:32;28.80;63.00
17364;DHT22;8799;43.594;13.526;2022-07-18T13:41:59;28.80;62.80
17364;DHT22;8799;43.594;13.526;2022-07-18T13:44:28;28.80;62.70
17364;DHT22;8799;43.594;13.526;2022-07-18T13:46:56;28.80;62.30
17364;DHT22;8799;43.594;13.526;2022-07-18T13:49:23;28.80;61.10
17364;DHT22;8799;43.594;13.526;2022-07-18T13:51:53;28.90;61.50
17364;DHT22;8799;43.594;13.526;2022-07-18T13:54:21;28.90;62.20
17364;DHT22;8799;43.594;13.526;2022-07-18T13:56:49;28.90;62.60
17364;DHT22;8799;43.594;13.526;2022-07-18T13:59:17;28.90;63.10
17364;DHT22;8799;43.594;13.526;2022-07-18T14:01:44;28.90;64.40
17364;DHT22;8799;43.594;13.526;2022-07-18T14:04:12;28.90;65.20
17364;DHT22;8799;43.594;13.526;2022-07-18T14:06:40;28.90;65.70
17364;DHT22;8799;43.594;13.526;2022-07-18T14:09:09;28.90;65.80
17364;DHT22;8799;43.594;13.526;2022-07-18T14:11:36;29.00;67.00
17364;DHT22;8799;43.594;13.526;2022-07-18T14:14:04;28.90;66.80
17364;DHT22;8799;43.594;13.526;2022-07-18T14:16:32;28.90;67.40
17364;DHT22;8799;43.594;13.526;2022-07-18T14:19:00;28.90;68.40
17364;DHT22;8799;43.594;13.526;2022-07-18T14:21:27;28.90;68.80
17364;DHT22;8799;43.594;13.526;2022-07-18T14:23:55;28.90;68.90
17364;DHT22;8799;43.594;13.526;2022-07-18T14:26:24;28.90;69.20
17364;DHT22;8799;43.594;13.526;2022-07-18T14:28:53;29.00;70.10
17364;DHT22;8799;43.594;13.526;2022-07-18T14:31:22;28.90;69.40
17364;DHT22;8799;43.594;13.526;2022-07-18T14:33:49;28.90;69.90
17364;DHT22;8799;43.594;13.526;2022-07-18T14:36:17;28.90;70.30
17364;DHT22;8799;43.594;13.526;2022-07-18T14:38:45;28.90;70.60
17364;DHT22;8799;43.594;13.526;2022-07-18T14:41:13;28.90;70.90
17364;DHT22;8799;43.594;13.526;2022-07-18T14:43:42;28.90;70.80
17364;DHT22;8799;43.594;13.526;2022-07-18T14:46:09;28.90;71.10
17364;DHT22;8799;43.594;13.526;2022-07-18T14:48:37;28.90;71.20
17364;DHT22;8799;43.594;13.526;2022-07-18T14:51:05;28.90;71.60
17364;DHT22;8799;43.594;13.526;2022-07-18T14:53:33;28.90;71.80
17364;DHT22;8799;43.594;13.526;2022-07-18T14:56:01;28.90;72.00
17364;DHT22;8799;43.594;13.526;2022-07-18T14:58:28;28.90;72.00
17364;DHT22;8799;43.594;13.526;2022-07-18T15:00:58;28.90;72.10
17364;DHT22;8799;43.594;13.526;2022-07-18T15:03:25;28.90;72.50
17364;DHT22;8799;43.594;13.526;2022-07-18T15:05:53;28.90;72.80
17364;DHT22;8799;43.594;13.526;2022-07-18T15:08:21;28.90;73.10
17364;DHT22;8799;43.594;13.526;2022-07-18T15:10:48;28.90;72.90
17364;DHT22;8799;43.594;13.526;2022-07-18T15:13:16;28.90;73.00
17364;DHT22;8799;43.594;13.526;2022-07-18T15:15:44;28.90;73.20
17364;DHT22;8799;43.594;13.526;2022-07-18T15:18:15;28.90;73.10
17364;DHT22;8799;43.594;13.526;2022-07-18T15:20:43;28.90;73.10
17364;DHT22;8799;43.594;13.526;2022-07-18T15:23:10;28.90;73.20
17364;DHT22;8799;43.594;13.526;2022-07-18T15:25:37;28.90;73.40
17364;DHT22;8799;43.594;13.526;2022-07-18T15:28:05;28.90;73.70
17364;DHT22;8799;43.594;13.526;2022-07-18T15:30:33;29.00;74.70
17364;DHT22;8799;43.594;13.526;2022-07-18T15:33:00;29.00;74.40
17364;DHT22;8799;43.594;13.526;2022-07-18T15:35:31;29.00;73.90
17364;DHT22;8799;43.594;13.526;2022-07-18T15:37:59;29.00;73.50
17364;DHT22;8799;43.594;13.526;2022-07-18T15:40:26;29.00;73.40
17364;DHT22;8799;43.594;13.526;2022-07-18T15:42:54;29.00;72.90
17364;DHT22;8799;43.594;13.526;2022-07-18T15:45:22;29.10;72.60